createdAt,value
2018-05-21T00:01:00.260Z,88.50
2018-05-21T00:03:27.155Z,89.10
2018-05-21T00:05:54.052Z,88.50
2018-05-21T00:08:20.953Z,88.70
2018-05-21T00:10:47.825Z,88.90
2018-05-21T00:13:15.456Z,89.80
2018-05-21T00:15:42.384Z,89.80
2018-05-21T00:18:09.275Z,89.70
2018-05-21T00:20:36.168Z,90.10
2018-05-21T00:23:03.052Z,90.10
2018-05-21T00:25:29.937Z,90.00
2018-05-21T00:27:56.894Z,90.10
2018-05-21T00:30:23.777Z,90.10
2018-05-21T00:32:51.383Z,89.70
2018-05-21T00:35:18.310Z,89.70
2018-05-21T00:37:45.205Z,89.60
2018-05-21T00:40:12.080Z,89.10
2018-05-21T00:42:39.694Z,89.20
2018-05-21T00:45:06.587Z,89.20
2018-05-21T00:47:34.201Z,89.40
2018-05-21T00:50:01.091Z,89.60
2018-05-21T00:52:27.969Z,89.80
2018-05-21T00:55:06.756Z,89.90
2018-05-21T00:57:33.727Z,89.90
2018-05-21T01:00:00.601Z,90.00
2018-05-21T01:02:27.492Z,90.00
2018-05-21T01:04:55.120Z,90.10
2018-05-21T01:07:22.093Z,90.50
2018-05-21T01:09:49.749Z,90.00
2018-05-21T01:12:16.669Z,89.80
2018-05-21T01:14:43.573Z,89.40
2018-05-21T01:17:10.451Z,89.40
2018-05-21T01:19:37.369Z,89.70
2018-05-21T01:22:04.244Z,90.00
2018-05-21T01:24:31.133Z,90.10
2018-05-21T01:26:58.026Z,90.30
2018-05-21T01:29:24.899Z,90.40
2018-05-21T01:31:52.533Z,90.50
2018-05-21T01:34:19.432Z,90.50
2018-05-21T01:36:46.332Z,90.60
2018-05-21T01:39:13.955Z,90.40
2018-05-21T01:41:40.841Z,90.30
2018-05-21T01:44:07.725Z,90.40
2018-05-21T01:46:35.352Z,90.30
2018-05-21T01:49:02.993Z,90.30
2018-05-21T01:51:29.885Z,90.30
2018-05-21T01:53:56.769Z,90.60
2018-05-21T01:56:23.645Z,90.90
2018-05-21T01:58:50.531Z,91.00
2018-05-21T02:01:17.406Z,91.10
2018-05-21T02:03:44.294Z,90.90
2018-05-21T02:06:11.182Z,90.70
2018-05-21T02:08:38.205Z,90.60
2018-05-21T02:11:05.818Z,90.70
2018-05-21T02:13:33.450Z,90.80
2018-05-21T02:16:00.344Z,90.80
2018-05-21T02:18:27.210Z,91.00
2018-05-21T02:20:54.092Z,90.90
2018-05-21T02:23:20.983Z,90.60
2018-05-21T02:25:47.869Z,90.20
2018-05-21T02:28:14.791Z,89.90
2018-05-21T02:30:41.662Z,89.70
2018-05-21T02:33:08.524Z,90.00
2018-05-21T02:35:35.405Z,90.20
2018-05-21T02:38:02.316Z,90.50
2018-05-21T02:40:29.938Z,90.30
2018-05-21T02:42:56.817Z,90.30
2018-05-21T02:45:23.720Z,90.20
2018-05-21T02:47:50.616Z,90.30
2018-05-21T02:50:18.217Z,90.50
2018-05-21T02:52:45.136Z,90.50
2018-05-21T02:55:12.026Z,90.70
2018-05-21T02:57:38.906Z,90.90
2018-05-21T03:00:06.532Z,90.60
2018-05-21T03:02:33.426Z,90.60
2018-05-21T03:05:00.301Z,90.50
2018-05-21T03:07:27.206Z,90.10
2018-05-21T03:09:54.836Z,88.90
2018-05-21T03:12:21.709Z,88.80
2018-05-21T03:14:48.577Z,89.00
2018-05-21T03:17:15.475Z,88.40
2018-05-21T03:19:42.349Z,88.80
2018-05-21T03:22:09.240Z,88.70
2018-05-21T03:24:36.144Z,89.80
2018-05-21T03:27:03.065Z,90.10
2018-05-21T03:29:30.709Z,90.40
2018-05-21T03:31:57.618Z,90.40
2018-05-21T03:34:24.485Z,90.40
2018-05-21T03:36:51.365Z,90.50
2018-05-21T03:39:18.340Z,90.50
2018-05-21T03:41:45.232Z,91.20
2018-05-21T03:44:12.129Z,90.90
2018-05-21T03:46:39.049Z,90.80
2018-05-21T03:49:05.944Z,90.80
2018-05-21T03:51:32.837Z,90.80
2018-05-21T03:53:59.745Z,91.00
2018-05-21T03:56:26.638Z,91.00
2018-05-21T04:02:08.807Z,91.10
2018-05-21T04:04:35.795Z,91.10
2018-05-21T04:07:03.472Z,90.70
2018-05-21T04:09:30.417Z,90.70
2018-05-21T04:11:57.344Z,90.70
2018-05-21T04:14:24.219Z,90.60
2018-05-21T04:16:51.093Z,90.50
2018-05-21T04:19:17.988Z,90.60
2018-05-21T04:21:44.864Z,90.50
2018-05-21T04:24:11.748Z,90.60
2018-05-21T04:26:38.645Z,90.70
2018-05-21T04:29:05.516Z,90.80
2018-05-21T04:31:32.376Z,90.60
2018-05-21T04:33:59.977Z,90.70
2018-05-21T04:36:26.957Z,90.70
2018-05-21T04:38:53.815Z,90.90
2018-05-21T04:41:21.411Z,91.50
2018-05-21T04:43:48.269Z,91.30
2018-05-21T04:46:15.136Z,91.30
2018-05-21T04:48:42.038Z,91.20
2018-05-21T04:51:08.928Z,91.30
2018-05-21T04:53:35.784Z,91.50
2018-05-21T04:56:02.645Z,91.50
2018-05-21T04:58:30.244Z,91.60
2018-05-21T05:00:57.145Z,91.60
2018-05-21T05:03:24.756Z,91.70
2018-05-21T05:05:51.626Z,91.30
2018-05-21T05:08:18.488Z,91.40
2018-05-21T05:10:45.434Z,91.50
2018-05-21T05:13:12.324Z,91.50
2018-05-21T05:15:39.185Z,91.80
2018-05-21T05:18:06.084Z,91.50
2018-05-21T05:20:32.945Z,91.50
2018-05-21T05:22:59.816Z,91.50
2018-05-21T05:25:26.708Z,91.40
2018-05-21T05:27:53.560Z,91.70
2018-05-21T05:30:20.445Z,91.90
2018-05-21T05:32:47.312Z,91.90
2018-05-21T05:35:14.168Z,92.10
2018-05-21T05:37:41.024Z,92.20
2018-05-21T05:40:07.891Z,92.50
2018-05-21T05:42:34.752Z,93.00
2018-05-21T05:45:01.636Z,93.30
2018-05-21T05:47:29.253Z,94.00
2018-05-21T05:49:56.868Z,94.40
2018-05-21T05:52:24.468Z,94.10
2018-05-21T05:54:51.345Z,94.00
2018-05-21T05:57:18.205Z,93.80
2018-05-21T05:59:45.121Z,93.60
2018-05-21T06:02:11.981Z,92.80
2018-05-21T06:04:38.836Z,92.40
2018-05-21T06:07:06.435Z,90.80
2018-05-21T06:09:33.293Z,90.80
2018-05-21T06:12:00.924Z,88.50
2018-05-21T06:14:27.797Z,88.60
2018-05-21T06:16:54.667Z,88.30
2018-05-21T06:19:21.528Z,87.50
2018-05-21T06:21:48.397Z,86.40
2018-05-21T06:24:16.801Z,84.90
2018-05-21T06:26:43.683Z,84.40
2018-05-21T06:29:10.557Z,84.40
2018-05-21T06:31:37.449Z,83.20
2018-05-21T06:34:04.358Z,81.80
2018-05-21T06:36:31.277Z,81.00
2018-05-21T06:38:58.889Z,77.60
2018-05-21T06:41:25.744Z,77.30
2018-05-21T06:43:52.628Z,75.50
2018-05-21T06:46:20.236Z,73.00
2018-05-21T06:48:47.141Z,72.90
2018-05-21T06:51:14.025Z,73.40
2018-05-21T06:53:40.889Z,71.80
2018-05-21T06:56:07.758Z,71.30
2018-05-21T06:58:35.381Z,69.00
2018-05-21T07:01:02.250Z,68.10
2018-05-21T07:03:29.773Z,67.10
2018-05-21T07:05:56.540Z,67.00
2018-05-21T07:08:23.392Z,65.50
2018-05-21T07:10:50.993Z,63.10
2018-05-21T07:13:17.886Z,63.00
2018-05-21T07:15:44.768Z,62.50
2018-05-21T07:18:11.650Z,61.30
2018-05-21T07:20:38.532Z,60.20
2018-05-21T07:23:06.129Z,60.00
2018-05-21T07:25:33.007Z,60.00
2018-05-21T07:27:59.980Z,59.70
2018-05-21T07:30:26.853Z,59.60
2018-05-21T07:32:53.760Z,59.20
2018-05-21T07:35:21.376Z,59.00
2018-05-21T07:37:48.252Z,59.00
2018-05-21T07:40:15.124Z,58.00
2018-05-21T07:42:42.004Z,58.50
2018-05-21T07:45:08.888Z,58.80
2018-05-21T07:47:35.763Z,58.60
2018-05-21T07:50:02.694Z,58.90
2018-05-21T07:52:29.560Z,58.70
2018-05-21T07:54:56.455Z,59.30
2018-05-21T07:57:23.353Z,59.10
2018-05-21T07:59:50.227Z,58.90
2018-05-21T08:02:17.103Z,58.80
2018-05-21T08:04:44.742Z,58.50
2018-05-21T08:07:11.620Z,58.50
2018-05-21T08:09:38.514Z,59.20
2018-05-21T08:12:05.430Z,59.20
2018-05-21T08:15:24.448Z,59.00
2018-05-21T08:17:51.469Z,59.30
2018-05-21T08:20:31.741Z,61.40
2018-05-21T08:26:19.996Z,61.80
2018-05-21T08:28:46.927Z,62.00
2018-05-21T08:31:13.835Z,63.50
2018-05-21T08:33:40.696Z,62.30
2018-05-21T08:36:07.571Z,63.30
2018-05-21T08:38:35.220Z,61.30
2018-05-21T08:41:02.096Z,61.40
2018-05-21T08:43:28.969Z,61.10
2018-05-21T08:45:55.836Z,62.70
2018-05-21T08:48:22.716Z,62.40
2018-05-21T08:50:49.581Z,62.00
2018-05-21T08:53:16.436Z,62.70
2018-05-21T08:55:43.296Z,62.50
2018-05-21T08:58:10.173Z,63.40
2018-05-21T09:00:37.041Z,62.10
2018-05-21T09:03:03.964Z,63.40
2018-05-21T09:05:30.828Z,64.80
2018-05-21T09:07:57.699Z,64.10
2018-05-21T09:10:24.649Z,62.60
2018-05-21T09:12:51.561Z,63.40
2018-05-21T09:15:19.581Z,62.80
2018-05-21T09:17:46.454Z,61.30
2018-05-21T09:20:13.642Z,62.00
2018-05-21T09:22:41.253Z,61.20
2018-05-21T09:25:08.128Z,60.30
2018-05-21T09:27:34.995Z,59.90
2018-05-21T09:30:01.869Z,58.60
2018-05-21T09:32:28.748Z,59.10
2018-05-21T09:34:55.615Z,57.90
2018-05-21T09:37:23.224Z,57.60
2018-05-21T09:39:50.096Z,57.50
2018-05-21T09:42:17.116Z,57.30
2018-05-21T09:44:44.696Z,55.80
2018-05-21T09:47:11.568Z,56.20
2018-05-21T09:49:39.176Z,56.60
2018-05-21T09:52:06.138Z,56.70
2018-05-21T09:54:32.995Z,54.20
2018-05-21T09:56:59.844Z,55.30
2018-05-21T09:59:26.827Z,55.00
2018-05-21T10:01:54.232Z,54.00
2018-05-21T10:04:21.083Z,52.00
2018-05-21T10:06:48.136Z,50.30
2018-05-21T10:09:15.744Z,50.80
2018-05-21T10:11:42.659Z,50.80
2018-05-21T10:14:09.548Z,51.60
2018-05-21T10:16:36.448Z,52.50
2018-05-21T10:19:04.048Z,50.50
2018-05-21T10:21:30.948Z,50.50
2018-05-21T10:23:58.565Z,49.50
2018-05-21T10:26:25.436Z,49.50
2018-05-21T10:28:52.299Z,48.40
2018-05-21T10:31:19.896Z,47.40
2018-05-21T10:33:46.746Z,47.20
2018-05-21T10:36:13.601Z,46.20
2018-05-21T10:38:40.463Z,48.20
2018-05-21T10:41:07.326Z,48.60
2018-05-21T10:43:34.974Z,47.60
2018-05-21T10:46:01.848Z,48.20
2018-05-21T10:48:28.716Z,46.30
2018-05-21T10:50:55.580Z,46.60
2018-05-21T10:53:22.444Z,48.80
2018-05-21T10:55:49.314Z,49.40
2018-05-21T10:58:16.181Z,47.50
2018-05-21T11:00:43.061Z,47.30
2018-05-21T11:03:10.688Z,48.00
2018-05-21T11:05:37.563Z,47.90
2018-05-21T11:08:04.432Z,46.70
2018-05-21T11:10:31.297Z,47.60
2018-05-21T11:12:58.204Z,47.70
2018-05-21T11:15:25.079Z,48.70
2018-05-21T11:17:51.971Z,47.70
2018-05-21T11:20:18.839Z,46.30
2018-05-21T11:22:45.745Z,45.90
2018-05-21T11:25:12.660Z,46.60
2018-05-21T11:27:39.543Z,48.30
2018-05-21T11:30:07.194Z,50.40
2018-05-21T11:32:34.052Z,48.90
2018-05-21T11:35:00.936Z,46.70
2018-05-21T11:37:27.796Z,45.50
2018-05-21T11:39:54.662Z,45.00
2018-05-21T11:42:21.530Z,47.20
2018-05-21T11:44:48.391Z,47.10
2018-05-21T11:47:15.248Z,45.90
2018-05-21T11:49:42.860Z,47.90
2018-05-21T11:52:09.730Z,47.80
2018-05-21T11:54:36.596Z,47.20
2018-05-21T11:57:03.453Z,48.80
2018-05-21T11:59:30.328Z,49.70
2018-05-21T12:01:57.203Z,48.80
2018-05-21T12:04:24.108Z,49.00
2018-05-21T12:06:50.974Z,49.10
2018-05-21T12:09:17.833Z,49.50
2018-05-21T12:11:44.720Z,50.50
2018-05-21T12:14:11.600Z,51.30
2018-05-21T12:16:39.212Z,50.80
2018-05-21T12:19:06.875Z,51.20
2018-05-21T12:21:33.814Z,51.20
2018-05-21T12:24:01.843Z,50.80
2018-05-21T12:26:28.788Z,50.70
2018-05-21T12:28:55.669Z,50.50
2018-05-21T12:31:23.288Z,50.50
2018-05-21T12:33:50.147Z,50.50
2018-05-21T12:36:17.336Z,50.40
2018-05-21T12:38:44.577Z,50.10
2018-05-21T12:41:12.177Z,50.90
2018-05-21T12:43:39.052Z,50.80
2018-05-21T12:46:05.949Z,51.00
2018-05-21T12:48:33.669Z,51.20
2018-05-21T12:51:01.424Z,50.40
2018-05-21T12:53:28.288Z,51.90
2018-05-21T12:55:55.909Z,49.00
2018-05-21T12:58:22.766Z,49.00
2018-05-21T13:00:51.196Z,50.30
2018-05-21T13:03:18.183Z,50.50
2018-05-21T13:05:45.188Z,51.40
2018-05-21T13:08:12.296Z,50.70
2018-05-21T13:10:41.093Z,50.80
2018-05-21T13:13:08.025Z,50.00
2018-05-21T13:15:34.909Z,50.00
2018-05-21T13:18:01.774Z,49.70
2018-05-21T13:20:28.672Z,47.20
2018-05-21T13:22:55.536Z,49.40
2018-05-21T13:25:22.392Z,49.50
2018-05-21T13:27:49.274Z,50.00
2018-05-21T13:30:17.051Z,50.10
2018-05-21T13:32:44.053Z,49.70
2018-05-21T13:35:11.373Z,50.60
2018-05-21T13:37:38.968Z,50.20
2018-05-21T13:43:04.325Z,49.90
2018-05-21T13:45:31.242Z,50.50
2018-05-21T13:47:58.107Z,51.80
2018-05-21T13:50:25.000Z,51.10
2018-05-21T13:52:51.857Z,51.90
2018-05-21T13:55:18.726Z,51.00
2018-05-21T13:57:45.588Z,50.60
2018-05-21T14:00:12.444Z,50.20
2018-05-21T14:02:39.307Z,49.70
2018-05-21T14:05:06.179Z,50.40
2018-05-21T14:07:33.053Z,51.20
2018-05-21T14:09:59.924Z,51.30
2018-05-21T14:12:26.858Z,49.90
2018-05-21T14:14:53.736Z,50.00
2018-05-21T14:17:20.696Z,49.70
2018-05-21T14:19:48.280Z,51.40
2018-05-21T14:22:15.338Z,51.40
2018-05-21T14:24:42.222Z,51.40
2018-05-21T14:27:09.820Z,51.00
2018-05-21T14:29:36.711Z,50.90
2018-05-21T14:32:04.341Z,52.40
2018-05-21T14:34:31.196Z,52.40
2018-05-21T14:36:58.056Z,52.40
2018-05-21T14:39:24.925Z,53.60
2018-05-21T14:41:51.833Z,52.40
2018-05-21T14:44:18.695Z,51.50
2018-05-21T14:46:45.556Z,51.90
2018-05-21T14:49:12.412Z,51.30
2018-05-21T14:51:39.286Z,52.30
2018-05-21T14:54:06.325Z,52.90
2018-05-21T14:56:33.248Z,51.40
2018-05-21T14:59:00.120Z,51.70
2018-05-21T15:01:27.307Z,52.30
2018-05-21T15:03:54.245Z,51.70
2018-05-21T15:06:21.076Z,51.40
2018-05-21T15:08:47.977Z,51.50
2018-05-21T15:11:15.053Z,52.80
2018-05-21T15:13:42.063Z,53.30
2018-05-21T15:16:08.987Z,53.10
2018-05-21T15:18:35.868Z,52.20
2018-05-21T15:21:02.745Z,51.90
2018-05-21T15:23:29.649Z,52.10
2018-05-21T15:25:56.509Z,52.00
2018-05-21T15:28:23.368Z,52.70
2018-05-21T15:30:50.247Z,53.50
2018-05-21T15:33:17.166Z,53.00
2018-05-21T15:35:44.053Z,54.10
2018-05-21T15:38:10.936Z,54.70
2018-05-21T15:40:37.794Z,54.10
2018-05-21T15:43:04.663Z,55.90
2018-05-21T15:45:32.287Z,54.50
2018-05-21T15:47:59.929Z,54.30
2018-05-21T15:50:26.856Z,53.70
2018-05-21T15:52:54.890Z,55.20
2018-05-21T15:55:21.768Z,56.10
2018-05-21T15:57:48.680Z,55.10
2018-05-21T16:00:15.553Z,54.90
2018-05-21T16:02:42.417Z,54.70
2018-05-21T16:05:09.294Z,55.50
2018-05-21T16:07:36.157Z,56.70
2018-05-21T16:10:03.775Z,57.20
2018-05-21T16:12:30.644Z,57.20
2018-05-21T16:14:57.785Z,56.90
2018-05-21T16:17:24.650Z,57.30
2018-05-21T16:19:52.264Z,58.80
2018-05-21T16:22:19.962Z,59.40
2018-05-21T16:24:47.652Z,59.60
2018-05-21T16:27:14.545Z,59.60
2018-05-21T16:29:41.433Z,59.70
2018-05-21T16:32:09.162Z,58.90
2018-05-21T16:34:36.172Z,58.90
2018-05-21T16:37:03.072Z,59.10
2018-05-21T16:39:30.844Z,58.70
2018-05-21T16:41:57.954Z,58.90
2018-05-21T16:44:24.829Z,59.10
2018-05-21T16:46:51.880Z,59.40
2018-05-21T16:49:19.503Z,60.70
2018-05-21T16:51:46.376Z,60.80
2018-05-21T16:54:13.272Z,59.70
2018-05-21T16:56:40.149Z,62.60
2018-05-21T16:59:07.042Z,63.10
2018-05-21T17:01:33.905Z,62.10
2018-05-21T17:04:00.933Z,61.10
2018-05-21T17:06:27.812Z,61.50
2018-05-21T17:08:54.714Z,60.90
2018-05-21T17:11:21.588Z,60.10
2018-05-21T17:13:48.474Z,61.20
2018-05-21T17:16:15.355Z,61.00
2018-05-21T17:18:42.229Z,61.30
2018-05-21T17:21:13.252Z,61.60
2018-05-21T17:23:40.144Z,62.50
2018-05-21T17:26:09.842Z,62.90
2018-05-21T17:28:37.612Z,64.90
2018-05-21T17:31:04.580Z,65.30
2018-05-21T17:33:31.444Z,66.00
2018-05-21T17:35:58.324Z,66.70
2018-05-21T17:38:25.931Z,65.50
2018-05-21T17:40:52.809Z,65.50
2018-05-21T17:43:19.704Z,65.70
2018-05-21T17:45:47.049Z,66.10
2018-05-21T17:48:15.217Z,65.50
2018-05-21T17:50:42.501Z,65.40
2018-05-21T17:53:09.401Z,65.20
2018-05-21T17:55:36.391Z,65.70
2018-05-21T17:58:03.288Z,66.30
2018-05-21T18:00:30.292Z,66.60
2018-05-21T18:02:57.189Z,67.30
2018-05-21T18:05:26.426Z,67.60
2018-05-21T18:07:53.567Z,67.60
2018-05-21T18:10:20.448Z,67.70
2018-05-21T18:12:47.316Z,67.90
2018-05-21T18:15:14.209Z,68.50
2018-05-21T18:17:41.092Z,69.10
2018-05-21T18:20:09.781Z,69.90
2018-05-21T18:22:36.846Z,69.90
2018-05-21T18:25:03.860Z,70.50
2018-05-21T18:27:30.750Z,70.80
2018-05-21T18:29:58.444Z,72.10
2018-05-21T18:32:25.705Z,72.00
2018-05-21T18:34:53.477Z,72.70
2018-05-21T18:37:20.352Z,73.10
2018-05-21T18:39:47.224Z,73.80
2018-05-21T18:42:14.878Z,74.30
2018-05-21T18:44:42.486Z,75.10
2018-05-21T18:47:09.435Z,75.10
2018-05-21T18:49:36.337Z,75.80
2018-05-21T18:52:03.954Z,76.80
2018-05-21T18:54:31.553Z,77.10
2018-05-21T18:56:59.213Z,78.00
2018-05-21T18:59:26.861Z,79.80
2018-05-21T19:01:54.468Z,79.80
2018-05-21T19:04:21.338Z,79.80
2018-05-21T19:06:48.207Z,80.40
2018-05-21T19:09:15.151Z,81.00
2018-05-21T19:11:42.053Z,80.70
2018-05-21T19:14:08.914Z,81.20
2018-05-21T19:16:36.525Z,82.00
2018-05-21T19:19:03.416Z,83.00
2018-05-21T19:21:30.300Z,81.90
2018-05-21T19:23:57.215Z,82.00
2018-05-21T19:26:24.133Z,82.50
2018-05-21T19:28:51.185Z,84.00
2018-05-21T19:31:18.185Z,84.60
2018-05-21T19:33:45.816Z,84.50
2018-05-21T19:36:12.705Z,84.50
2018-05-21T19:38:39.587Z,85.00
2018-05-21T19:41:06.491Z,84.60
2018-05-21T19:43:33.423Z,85.10
2018-05-21T19:46:01.020Z,84.80
2018-05-21T19:48:29.220Z,84.80
2018-05-21T19:50:56.104Z,85.00
2018-05-21T19:53:23.867Z,85.10
2018-05-21T19:55:51.482Z,86.10
2018-05-21T19:58:18.340Z,86.10
2018-05-21T20:00:46.199Z,86.00
2018-05-21T20:03:13.077Z,86.50
2018-05-21T20:05:40.717Z,86.80
2018-05-21T20:08:07.577Z,86.80
2018-05-21T20:10:35.172Z,86.60
2018-05-21T20:13:02.108Z,86.70
2018-05-21T20:15:29.006Z,87.50
2018-05-21T20:17:55.865Z,87.70
2018-05-21T20:20:35.471Z,87.40
2018-05-21T20:23:02.559Z,87.30
2018-05-21T20:25:30.175Z,87.10
2018-05-21T20:27:57.072Z,87.10
2018-05-21T20:30:24.741Z,87.80
2018-05-21T20:32:51.608Z,87.80
2018-05-21T20:35:19.614Z,88.40
2018-05-21T20:37:46.505Z,88.80
2018-05-21T20:40:13.419Z,88.60
2018-05-21T20:42:41.029Z,88.60
2018-05-21T20:45:07.930Z,88.50
2018-05-21T20:47:35.557Z,88.80
2018-05-21T20:50:02.508Z,88.60
2018-05-21T20:52:29.396Z,88.70
2018-05-21T20:54:56.274Z,89.40
2018-05-21T20:57:23.254Z,88.80
2018-05-21T20:59:50.159Z,89.20
2018-05-21T21:02:17.025Z,89.80
2018-05-21T21:04:43.910Z,89.80
2018-05-21T21:07:10.777Z,90.00
2018-05-21T21:09:37.657Z,89.60
2018-05-21T21:12:04.533Z,89.80
2018-05-21T21:14:32.164Z,89.20
2018-05-21T21:16:59.057Z,89.20
2018-05-21T21:19:25.945Z,89.20
2018-05-21T21:21:52.834Z,89.10
2018-05-21T21:24:19.761Z,89.60
2018-05-21T21:26:46.654Z,89.80
2018-05-21T21:29:13.626Z,89.60
2018-05-21T21:31:40.494Z,90.00
2018-05-21T21:34:08.137Z,90.10
2018-05-21T21:36:35.058Z,90.10
2018-05-21T21:39:01.973Z,90.30
2018-05-21T21:41:28.871Z,90.40
2018-05-21T21:43:55.890Z,90.30
2018-05-21T21:46:22.774Z,90.50
2018-05-21T21:48:50.445Z,90.60
2018-05-21T21:51:18.061Z,90.70
2018-05-21T21:53:44.983Z,90.70
2018-05-21T21:56:11.857Z,90.80
2018-05-21T21:58:38.742Z,90.70
2018-05-21T22:01:05.925Z,90.60
2018-05-21T22:03:32.962Z,90.80
2018-05-21T22:05:59.848Z,90.90
2018-05-21T22:08:26.781Z,90.80
2018-05-21T22:10:53.696Z,90.80
2018-05-21T22:13:20.571Z,90.90
2018-05-21T22:15:47.677Z,91.10
2018-05-21T22:18:14.544Z,91.10
2018-05-21T22:20:41.437Z,91.10
2018-05-21T22:23:08.370Z,91.10
2018-05-21T22:25:35.253Z,91.20
2018-05-21T22:28:02.249Z,91.40
2018-05-21T22:30:29.161Z,91.10
2018-05-21T22:32:56.044Z,91.00
2018-05-21T22:35:22.942Z,91.10
2018-05-21T22:37:49.817Z,91.20
2018-05-21T22:40:16.694Z,91.30
2018-05-21T22:42:45.054Z,91.10
2018-05-21T22:45:11.943Z,91.20
2018-05-21T22:47:38.812Z,91.20
2018-05-21T22:50:05.705Z,91.30
2018-05-21T22:52:32.588Z,91.30
2018-05-21T22:54:59.473Z,91.40
2018-05-21T22:57:26.340Z,91.50
2018-05-21T22:59:53.211Z,91.40
2018-05-21T23:02:20.081Z,91.50
2018-05-21T23:04:46.955Z,91.60
2018-05-21T23:07:14.566Z,92.00
2018-05-21T23:09:41.434Z,92.00
2018-05-21T23:12:08.296Z,92.00
2018-05-21T23:14:35.221Z,92.10
2018-05-21T23:17:02.093Z,92.10
2018-05-21T23:19:29.709Z,92.20
2018-05-21T23:21:56.580Z,92.30
2018-05-21T23:24:23.453Z,92.30
2018-05-21T23:26:50.328Z,92.30
2018-05-21T23:29:17.226Z,92.40
2018-05-21T23:31:44.864Z,92.60
2018-05-21T23:34:11.748Z,92.60
2018-05-21T23:36:38.612Z,92.40
2018-05-21T23:39:05.497Z,92.70
2018-05-21T23:41:32.380Z,92.70
2018-05-21T23:43:59.634Z,92.60
2018-05-21T23:46:26.521Z,92.60
2018-05-21T23:48:53.396Z,92.50
2018-05-21T23:51:20.477Z,92.70
2018-05-21T23:53:47.367Z,92.80
2018-05-21T23:56:14.277Z,92.90
2018-05-21T23:58:41.176Z,92.60
